Llangammarch Wells, United Kingdom
Current Conditions -  °F | °C
As of 10:50 PM on Tuesday 27 Jan 2015 (Local Time) from EGOP Reporting Station
Broken Clouds Broken Clouds  
Wind Chill: 39°   Ceiling: 1100
Heat Index: 46°   Visibility: 2.3mi
Dew Point: 45°   Wind: 21mph
Humidity: 93%   Direction: 230°SW
Pressure: 30.12"   Gusts: NA
Location:  52.11°N, 3.55°W
Report Text: EGOP 272250Z AUTO 23018KT 3700 // SCT003/// BKN011/// 08/07 Q1020
Loading
Personal Weather Stations






























Interactive Weather Map New forecast layout! Learn more

10-Day Weather Forecast

Advertisements
Track Severe Weather on mobile